Terminal Aerodrome Forecast
Issued by NWS

Home | Current Version | Previous Version | Text Only | Print | Product List | Glossary On
Versions: 1 2 3 4 5 6 7 8 9 10 11 12 13 14 15 16 17 18 19 20
000
FTUS43 KEAX 011123
TAFMKC
TAF
KMKC 011123Z 0112/0212 26004KT P6SM OVC050
     FM011900 31009KT P6SM OVC035
     FM020100 35008KT P6SM BKN030
     FM020300 35005KT P6SM BKN020=

USA.gov is the U.S. government's official web portal to all federal, state and local government web resources and services.